PWSweather.com
Personal Weather Stations
Station Observations
UPSTATEWEATHER
Silver Leaf, Greer, SC 29650

Silver LeafGreer, SC 29650

Lat: 34.8955792, Lon: -82.2868211

Elevation: 875

Station Type: Davis Vantage Vue

https://www.upstateweather.com

High Low Average
Temperature 87.1°F30.6°C 71.8°F22.1°C 78.1°F25.6°C
Dew Point 78.1°F25.6°C 71.2°F21.8°C 74.3°F23.5°C
Winds 2.3 mph 3.7 kmh Calm Calm Calm Calm
Wind Gusts 3.5 mph5.6 kmh -- --
Humidity 98% 71% 89%
Pressure 29.92 in1013.2 mb 29.82 in1009.8 mb -
Precipitation 0.66 in16.8 mm - -
Hour Temp Dew Point Humidity Winds Wind Gusts Pressure Precip Precip Rate Daily Precip Total
12:00 AM 75.3°F24.1°C 73.8°F23.2°C 95% Calm Calm -- 29.89 in1012.2 mb - 0.47 in11.9 mm 0.47 in11.9 mm
12:15 AM 75.1°F23.9°C 73.9°F23.3°C 96% Calm Calm -- 29.90 in1012.5 mb - 0.54 in13.7 mm 0.54 in13.7 mm
12:30 AM 74.8°F23.8°C 73.6°F23.1°C 96% Calm Calm -- 29.89 in1012.2 mb - 0.32 in8.1 mm 0.59 in15.0 mm
12:45 AM 74.6°F23.7°C 73.4°F23.0°C 96% Calm Calm 1.2 mph1.9 kmh 29.89 in1012.2 mb - 0.18 in4.6 mm 0.62 in15.7 mm
01:00 AM 74.6°F23.7°C 73.7°F23.2°C 97% Calm Calm -- 29.88 in1011.9 mb - 0.16 in4.1 mm 0.64 in16.3 mm
01:15 AM 74.2°F23.4°C 73.3°F22.9°C 97% Calm Calm -- 29.86 in1011.2 mb - 0.12 in3.0 mm 0.66 in16.8 mm
01:30 AM 74.0°F23.3°C 73.1°F22.8°C 97% Calm Calm -- 29.86 in1011.2 mb - 0.08 in2.0 mm 0.66 in16.8 mm
01:45 AM 73.8°F23.2°C 72.9°F22.7°C 97% Calm Calm -- 29.86 in1011.2 mb - 0.04 in1.0 mm 0.66 in16.8 mm
02:00 AM 73.9°F23.3°C 73.0°F22.8°C 97% Calm Calm -- 29.85 in1010.8 mb - 0.02 in0.5 mm 0.66 in16.8 mm
02:15 AM 74.0°F23.3°C 73.1°F22.8°C 97% Calm Calm -- 29.86 in1011.2 mb - 0.00 in0.0 mm 0.66 in16.8 mm
02:30 AM 73.9°F23.3°C 73.0°F22.8°C 97% Calm Calm -- 29.86 in1011.2 mb - 0.00 in0.0 mm 0.66 in16.8 mm
02:45 AM 73.7°F23.2°C 72.8°F22.7°C 97% Calm Calm -- 29.86 in1011.2 mb - 0.00 in0.0 mm 0.66 in16.8 mm
03:00 AM 73.3°F22.9°C 72.4°F22.4°C 97% Calm Calm -- 29.86 in1011.2 mb - 0.00 in0.0 mm 0.66 in16.8 mm
03:15 AM 72.8°F22.7°C 71.9°F22.2°C 97% Calm Calm -- 29.86 in1011.2 mb - 0.00 in0.0 mm 0.66 in16.8 mm
03:30 AM 72.6°F22.6°C 71.7°F22.1°C 97% Calm Calm -- 29.86 in1011.2 mb - 0.00 in0.0 mm 0.66 in16.8 mm
03:45 AM 72.4°F22.4°C 71.5°F21.9°C 97% Calm Calm -- 29.86 in1011.2 mb - 0.00 in0.0 mm 0.66 in16.8 mm
04:00 AM 72.4°F22.4°C 71.5°F21.9°C 97% Calm Calm -- 29.86 in1011.2 mb - 0.00 in0.0 mm 0.66 in16.8 mm
04:15 AM 72.3°F22.4°C 71.4°F21.9°C 97% Calm Calm -- 29.87 in1011.5 mb - 0.00 in0.0 mm 0.66 in16.8 mm
04:30 AM 72.4°F22.4°C 71.8°F22.1°C 98% Calm Calm -- 29.87 in1011.5 mb - 0.00 in0.0 mm 0.66 in16.8 mm
04:45 AM 72.2°F22.3°C 71.3°F21.8°C 97% Calm Calm -- 29.87 in1011.5 mb - 0.00 in0.0 mm 0.66 in16.8 mm
05:00 AM 72.1°F22.3°C 71.5°F21.9°C 98% Calm Calm -- 29.87 in1011.5 mb - 0.00 in0.0 mm 0.66 in16.8 mm
05:15 AM 71.9°F22.2°C 71.3°F21.8°C 98% Calm Calm -- 29.88 in1011.9 mb - 0.00 in0.0 mm 0.66 in16.8 mm
05:30 AM 71.8°F22.1°C 71.2°F21.8°C 98% Calm Calm -- 29.88 in1011.9 mb - 0.00 in0.0 mm 0.66 in16.8 mm
05:45 AM 71.8°F22.1°C 71.2°F21.8°C 98% Calm Calm -- 29.88 in1011.9 mb - 0.00 in0.0 mm 0.66 in16.8 mm
06:00 AM 71.8°F22.1°C 71.2°F21.8°C 98% Calm Calm -- 29.89 in1012.2 mb - 0.00 in0.0 mm 0.66 in16.8 mm
06:15 AM 71.8°F22.1°C 71.2°F21.8°C 98% Calm Calm -- 29.88 in1011.9 mb - 0.00 in0.0 mm 0.66 in16.8 mm
06:30 AM 72.0°F22.2°C 71.4°F21.9°C 98% Calm Calm -- 29.88 in1011.9 mb - 0.00 in0.0 mm 0.66 in16.8 mm
06:45 AM 72.0°F22.2°C 71.4°F21.9°C 98% Calm Calm -- 29.88 in1011.9 mb - 0.00 in0.0 mm 0.66 in16.8 mm
07:00 AM 72.2°F22.3°C 71.6°F22.0°C 98% Calm Calm -- 29.87 in1011.5 mb - 0.00 in0.0 mm 0.66 in16.8 mm
07:15 AM 72.4°F22.4°C 71.8°F22.1°C 98% Calm Calm -- 29.87 in1011.5 mb - 0.00 in0.0 mm 0.66 in16.8 mm
07:30 AM 72.7°F22.6°C 72.1°F22.3°C 98% Calm Calm -- 29.87 in1011.5 mb - 0.00 in0.0 mm 0.66 in16.8 mm
07:45 AM 73.2°F22.9°C 72.6°F22.6°C 98% Calm Calm -- 29.86 in1011.2 mb - 0.00 in0.0 mm 0.66 in16.8 mm
08:00 AM 74.1°F23.4°C 73.5°F23.1°C 98% Calm Calm -- 29.86 in1011.2 mb - 0.00 in0.0 mm 0.66 in16.8 mm
08:15 AM 74.5°F23.6°C 73.9°F23.3°C 98% Calm Calm -- 29.86 in1011.2 mb - 0.00 in0.0 mm 0.66 in16.8 mm
08:30 AM 75.3°F24.1°C 74.7°F23.7°C 98% Calm Calm -- 29.86 in1011.2 mb - 0.00 in0.0 mm 0.66 in16.8 mm
08:45 AM 75.8°F24.3°C 74.9°F23.8°C 97% Calm Calm -- 29.86 in1011.2 mb - 0.00 in0.0 mm 0.66 in16.8 mm
09:00 AM 76.2°F24.6°C 75.3°F24.1°C 97% Calm Calm -- 29.86 in1011.2 mb - 0.00 in0.0 mm 0.66 in16.8 mm
09:15 AM 76.8°F24.9°C 75.9°F24.4°C 97% Calm Calm -- 29.86 in1011.2 mb - 0.00 in0.0 mm 0.66 in16.8 mm
09:30 AM 77.2°F25.1°C 76.0°F24.4°C 96% Calm Calm -- 29.87 in1011.5 mb - 0.00 in0.0 mm 0.66 in16.8 mm
09:45 AM 78.2°F25.7°C 76.7°F24.8°C 95% Calm Calm -- 29.88 in1011.9 mb - 0.00 in0.0 mm 0.66 in16.8 mm
10:00 AM 80.5°F26.9°C 76.6°F24.8°C 88% Calm Calm -- 29.87 in1011.5 mb - 0.00 in0.0 mm 0.66 in16.8 mm
10:15 AM 81.5°F27.5°C 77.2°F25.1°C 87% Calm Calm -- 29.88 in1011.9 mb - 0.00 in0.0 mm 0.66 in16.8 mm
10:30 AM 81.3°F27.4°C 76.0°F24.4°C 84% Calm Calm -- 29.88 in1011.9 mb - 0.00 in0.0 mm 0.66 in16.8 mm
10:45 AM 82.0°F27.8°C 77.0°F25.0°C 85% Calm Calm 1.2 mph1.9 kmh 29.88 in1011.9 mb - 0.00 in0.0 mm 0.66 in16.8 mm
11:00 AM 82.7°F28.2°C 78.1°F25.6°C 86% Calm Calm -- 29.88 in1011.9 mb - 0.00 in0.0 mm 0.66 in16.8 mm
11:15 AM 82.3°F27.9°C 76.3°F24.6°C 82% Calm Calm -- 29.88 in1011.9 mb - 0.00 in0.0 mm 0.66 in16.8 mm
11:30 AM 83.2°F28.4°C 77.9°F25.5°C 84% Calm Calm -- 29.88 in1011.9 mb - 0.00 in0.0 mm 0.66 in16.8 mm
11:45 AM 83.8°F28.8°C 78.1°F25.6°C 83% Calm Calm -- 29.88 in1011.9 mb - 0.00 in0.0 mm 0.66 in16.8 mm
12:00 PM 83.8°F28.8°C 75.4°F24.1°C 76% Calm Calm -- 29.88 in1011.9 mb - 0.00 in0.0 mm 0.66 in16.8 mm
12:15 PM 85.7°F29.8°C 76.5°F24.7°C 74% 1.2 mph 1.9 kmh 1.2 mph1.9 kmh 29.88 in1011.9 mb - 0.00 in0.0 mm 0.66 in16.8 mm
12:30 PM 86.1°F30.1°C 75.6°F24.2°C 71% Calm Calm -- 29.88 in1011.9 mb - 0.00 in0.0 mm 0.66 in16.8 mm
12:45 PM 86.1°F30.1°C 76.0°F24.4°C 72% Calm Calm 1.2 mph1.9 kmh 29.88 in1011.9 mb - 0.00 in0.0 mm 0.66 in16.8 mm
01:00 PM 85.9°F29.9°C 77.4°F25.2°C 76% Calm Calm 1.2 mph1.9 kmh 29.87 in1011.5 mb - 0.00 in0.0 mm 0.66 in16.8 mm
01:15 PM 86.2°F30.1°C 77.0°F25.0°C 74% Calm Calm -- 29.87 in1011.5 mb - 0.00 in0.0 mm 0.66 in16.8 mm
01:30 PM 86.5°F30.3°C 78.0°F25.6°C 76% Calm Calm -- 29.87 in1011.5 mb - 0.00 in0.0 mm 0.66 in16.8 mm
01:45 PM 86.7°F30.4°C 76.2°F24.6°C 71% Calm Calm 2.3 mph3.7 kmh 29.86 in1011.2 mb - 0.00 in0.0 mm 0.66 in16.8 mm
02:00 PM 87.1°F30.6°C 77.8°F25.4°C 74% Calm Calm -- 29.86 in1011.2 mb - 0.00 in0.0 mm 0.66 in16.8 mm
02:15 PM 86.0°F30.0°C 76.7°F24.8°C 74% 2.3 mph 3.7 kmh 3.5 mph5.6 kmh 29.86 in1011.2 mb - 0.00 in0.0 mm 0.66 in16.8 mm
02:30 PM 83.8°F28.8°C 75.4°F24.1°C 76% 1.2 mph 1.9 kmh 2.3 mph3.7 kmh 29.84 in1010.5 mb - 0.00 in0.0 mm 0.66 in16.8 mm
02:45 PM 82.8°F28.2°C 74.0°F23.3°C 75% 2.3 mph 3.7 kmh 2.3 mph3.7 kmh 29.84 in1010.5 mb - 0.00 in0.0 mm 0.66 in16.8 mm
03:00 PM 82.9°F28.3°C 76.8°F24.9°C 82% Calm Calm 1.2 mph1.9 kmh 29.82 in1009.8 mb - 0.00 in0.0 mm 0.66 in16.8 mm
03:15 PM 83.2°F28.4°C 77.1°F25.1°C 82% Calm Calm -- 29.82 in1009.8 mb - 0.00 in0.0 mm 0.66 in16.8 mm
03:30 PM 83.4°F28.6°C 76.6°F24.8°C 80% Calm Calm -- 29.82 in1009.8 mb - 0.00 in0.0 mm 0.66 in16.8 mm
03:45 PM 83.5°F28.6°C 77.8°F25.4°C 83% 1.2 mph 1.9 kmh 2.3 mph3.7 kmh 29.82 in1009.8 mb - 0.00 in0.0 mm 0.66 in16.8 mm
04:00 PM 83.2°F28.4°C 77.1°F25.1°C 82% 1.2 mph N1.9 kmh N 1.2 mph1.9 kmh 29.83 in1010.2 mb - 0.00 in0.0 mm 0.66 in16.8 mm
04:15 PM 83.2°F28.4°C 76.8°F24.9°C 81% Calm Calm -- 29.83 in1010.2 mb - 0.00 in0.0 mm 0.66 in16.8 mm
04:30 PM 83.2°F28.4°C 75.6°F24.2°C 78% Calm Calm -- 29.83 in1010.2 mb - 0.00 in0.0 mm 0.66 in16.8 mm
04:45 PM 82.9°F28.3°C 75.7°F24.3°C 79% Calm Calm -- 29.83 in1010.2 mb - 0.00 in0.0 mm 0.66 in16.8 mm
05:00 PM 82.1°F27.8°C 76.1°F24.5°C 82% Calm Calm -- 29.84 in1010.5 mb - 0.00 in0.0 mm 0.66 in16.8 mm
05:15 PM 81.9°F27.7°C 76.2°F24.6°C 83% Calm Calm -- 29.84 in1010.5 mb - 0.00 in0.0 mm 0.66 in16.8 mm
05:30 PM 81.6°F27.6°C 75.9°F24.4°C 83% Calm Calm -- 29.84 in1010.5 mb - 0.00 in0.0 mm 0.66 in16.8 mm
05:45 PM 81.4°F27.4°C 76.5°F24.7°C 85% Calm Calm -- 29.84 in1010.5 mb - 0.00 in0.0 mm 0.66 in16.8 mm
06:00 PM 81.2°F27.3°C 75.5°F24.2°C 83% Calm Calm -- 29.85 in1010.8 mb - 0.00 in0.0 mm 0.66 in16.8 mm
06:15 PM 81.0°F27.2°C 76.1°F24.5°C 85% Calm Calm -- 29.85 in1010.8 mb - 0.00 in0.0 mm 0.66 in16.8 mm
06:30 PM 80.4°F26.9°C 74.8°F23.8°C 83% Calm Calm -- 29.86 in1011.2 mb - 0.00 in0.0 mm 0.66 in16.8 mm
06:45 PM 80.2°F26.8°C 73.5°F23.1°C 80% Calm Calm 1.2 mph1.9 kmh 29.87 in1011.5 mb - 0.00 in0.0 mm 0.66 in16.8 mm
07:00 PM 80.4°F26.9°C 74.4°F23.6°C 82% Calm Calm -- 29.87 in1011.5 mb - 0.00 in0.0 mm 0.66 in16.8 mm
07:15 PM 80.2°F26.8°C 74.9°F23.8°C 84% Calm Calm -- 29.88 in1011.9 mb - 0.00 in0.0 mm 0.66 in16.8 mm
07:30 PM 80.3°F26.8°C 74.3°F23.5°C 82% Calm Calm 1.2 mph1.9 kmh 29.88 in1011.9 mb - 0.00 in0.0 mm 0.66 in16.8 mm
07:45 PM 79.8°F26.6°C 74.2°F23.4°C 83% Calm Calm -- 29.88 in1011.9 mb - 0.00 in0.0 mm 0.66 in16.8 mm
08:00 PM 79.4°F26.3°C 73.4°F23.0°C 82% Calm Calm -- 29.88 in1011.9 mb - 0.00 in0.0 mm 0.66 in16.8 mm
08:15 PM 79.1°F26.2°C 73.1°F22.8°C 82% Calm Calm -- 29.87 in1011.5 mb - 0.00 in0.0 mm 0.66 in16.8 mm
08:30 PM 78.9°F26.1°C 74.0°F23.3°C 85% Calm Calm -- 29.87 in1011.5 mb - 0.00 in0.0 mm 0.66 in16.8 mm
08:45 PM 78.1°F25.6°C 73.9°F23.3°C 87% Calm Calm -- 29.88 in1011.9 mb - 0.00 in0.0 mm 0.66 in16.8 mm
09:00 PM 77.5°F25.3°C 72.7°F22.6°C 85% Calm Calm -- 29.88 in1011.9 mb - 0.00 in0.0 mm 0.66 in16.8 mm
09:15 PM 77.0°F25.0°C 72.5°F22.5°C 86% Calm Calm -- 29.88 in1011.9 mb - 0.00 in0.0 mm 0.66 in16.8 mm
09:30 PM 77.0°F25.0°C 72.5°F22.5°C 86% Calm Calm -- 29.90 in1012.5 mb - 0.00 in0.0 mm 0.66 in16.8 mm
09:45 PM 76.7°F24.8°C 72.6°F22.6°C 87% Calm Calm -- 29.91 in1012.9 mb - 0.00 in0.0 mm 0.66 in16.8 mm
10:00 PM 76.7°F24.8°C 73.2°F22.9°C 89% Calm Calm -- 29.91 in1012.9 mb - 0.00 in0.0 mm 0.66 in16.8 mm
10:15 PM 76.7°F24.8°C 73.8°F23.2°C 91% Calm Calm -- 29.91 in1012.9 mb - 0.00 in0.0 mm 0.66 in16.8 mm
10:30 PM 76.6°F24.8°C 73.8°F23.2°C 91% Calm Calm -- 29.91 in1012.9 mb - 0.00 in0.0 mm 0.66 in16.8 mm
10:45 PM 76.5°F24.7°C 73.7°F23.2°C 91% Calm Calm -- 29.91 in1012.9 mb - 0.00 in0.0 mm 0.66 in16.8 mm
11:00 PM 76.4°F24.7°C 73.9°F23.3°C 92% Calm Calm -- 29.91 in1012.9 mb - 0.00 in0.0 mm 1.93 in49.0 mm
11:15 PM 76.3°F24.6°C 73.8°F23.2°C 92% Calm Calm -- 29.91 in1012.9 mb - 0.00 in0.0 mm 1.93 in49.0 mm
11:30 PM 76.2°F24.6°C 73.4°F23.0°C 91% Calm Calm -- 29.91 in1012.9 mb - 0.00 in0.0 mm 1.93 in49.0 mm
11:45 PM 76.3°F24.6°C 73.5°F23.1°C 91% Calm Calm -- 29.92 in1013.2 mb - 0.00 in0.0 mm 1.93 in49.0 mm